sensor_id;sensor_type;location;lat;lon;timestamp;P1;durP1;ratioP1;P2;durP2;ratioP2
16450;SDS011;12243;42.708;23.310;2022-08-07T00:00:51;8.55;;;7.75;;
16450;SDS011;12243;42.708;23.310;2022-08-07T00:03:18;7.82;;;7.18;;
16450;SDS011;12243;42.708;23.310;2022-08-07T00:05:45;8.70;;;7.90;;
16450;SDS011;12243;42.708;23.310;2022-08-07T00:08:11;9.43;;;8.63;;
16450;SDS011;12243;42.708;23.310;2022-08-07T00:10:38;8.63;;;7.82;;
16450;SDS011;12243;42.708;23.310;2022-08-07T00:13:06;8.63;;;7.32;;
16450;SDS011;12243;42.708;23.310;2022-08-07T00:15:34;8.95;;;7.90;;
16450;SDS011;12243;42.708;23.310;2022-08-07T00:18:01;9.27;;;8.38;;
16450;SDS011;12243;42.708;23.310;2022-08-07T00:20:28;8.40;;;7.80;;
16450;SDS011;12243;42.708;23.310;2022-08-07T00:22:55;8.63;;;7.82;;
16450;SDS011;12243;42.708;23.310;2022-08-07T00:25:22;8.52;;;7.68;;
16450;SDS011;12243;42.708;23.310;2022-08-07T00:27:49;9.63;;;8.23;;
16450;SDS011;12243;42.708;23.310;2022-08-07T00:30:16;8.73;;;7.95;;
16450;SDS011;12243;42.708;23.310;2022-08-07T00:32:47;9.10;;;8.25;;
16450;SDS011;12243;42.708;23.310;2022-08-07T00:35:14;9.45;;;8.57;;
16450;SDS011;12243;42.708;23.310;2022-08-07T00:37:41;10.35;;;8.15;;
16450;SDS011;12243;42.708;23.310;2022-08-07T00:40:08;8.70;;;8.07;;
16450;SDS011;12243;42.708;23.310;2022-08-07T00:42:35;9.98;;;7.82;;
16450;SDS011;12243;42.708;23.310;2022-08-07T00:45:03;8.88;;;8.07;;
16450;SDS011;12243;42.708;23.310;2022-08-07T00:47:31;8.48;;;7.68;;
16450;SDS011;12243;42.708;23.310;2022-08-07T00:50:00;9.07;;;8.32;;
16450;SDS011;12243;42.708;23.310;2022-08-07T00:52:27;9.05;;;8.07;;
16450;SDS011;12243;42.708;23.310;2022-08-07T00:54:54;8.57;;;7.40;;
16450;SDS011;12243;42.708;23.310;2022-08-07T00:57:21;9.45;;;7.80;;
16450;SDS011;12243;42.708;23.310;2022-08-07T00:59:49;8.68;;;7.47;;
16450;SDS011;12243;42.708;23.310;2022-08-07T01:02:17;7.90;;;7.05;;
16450;SDS011;12243;42.708;23.310;2022-08-07T01:04:44;7.90;;;7.40;;
16450;SDS011;12243;42.708;23.310;2022-08-07T01:07:13;8.30;;;7.60;;
16450;SDS011;12243;42.708;23.310;2022-08-07T01:09:40;7.90;;;7.10;;
16450;SDS011;12243;42.708;23.310;2022-08-07T01:12:07;7.93;;;7.10;;
16450;SDS011;12243;42.708;23.310;2022-08-07T01:14:35;8.05;;;7.35;;
16450;SDS011;12243;42.708;23.310;2022-08-07T01:17:03;8.27;;;7.47;;
16450;SDS011;12243;42.708;23.310;2022-08-07T01:19:30;7.80;;;7.28;;
16450;SDS011;12243;42.708;23.310;2022-08-07T01:22:01;8.63;;;7.82;;
16450;SDS011;12243;42.708;23.310;2022-08-07T01:24:36;7.57;;;7.05;;
16450;SDS011;12243;42.708;23.310;2022-08-07T01:27:04;8.13;;;7.43;;
16450;SDS011;12243;42.708;23.310;2022-08-07T01:29:32;8.55;;;7.95;;
16450;SDS011;12243;42.708;23.310;2022-08-07T01:32:00;8.48;;;7.68;;
16450;SDS011;12243;42.708;23.310;2022-08-07T01:34:29;8.35;;;7.75;;
16450;SDS011;12243;42.708;23.310;2022-08-07T01:37:02;8.80;;;7.90;;
16450;SDS011;12243;42.708;23.310;2022-08-07T01:39:29;8.32;;;7.03;;
16450;SDS011;12243;42.708;23.310;2022-08-07T01:42:03;8.45;;;7.38;;
16450;SDS011;12243;42.708;23.310;2022-08-07T01:44:32;8.02;;;7.43;;
16450;SDS011;12243;42.708;23.310;2022-08-07T01:47:00;8.20;;;7.57;;
16450;SDS011;12243;42.708;23.310;2022-08-07T01:49:30;8.40;;;7.70;;
16450;SDS011;12243;42.708;23.310;2022-08-07T01:51:57;8.00;;;7.30;;
16450;SDS011;12243;42.708;23.310;2022-08-07T01:54:28;8.93;;;8.13;;
16450;SDS011;12243;42.708;23.310;2022-08-07T01:57:00;9.20;;;8.48;;
16450;SDS011;12243;42.708;23.310;2022-08-07T01:59:31;9.30;;;8.40;;
16450;SDS011;12243;42.708;23.310;2022-08-07T02:02:02;8.85;;;8.10;;
16450;SDS011;12243;42.708;23.310;2022-08-07T02:04:37;8.90;;;8.30;;
16450;SDS011;12243;42.708;23.310;2022-08-07T02:07:09;8.52;;;7.82;;
16450;SDS011;12243;42.708;23.310;2022-08-07T02:09:40;8.45;;;7.68;;
16450;SDS011;12243;42.708;23.310;2022-08-07T02:12:12;9.63;;;7.70;;
16450;SDS011;12243;42.708;23.310;2022-08-07T02:14:48;7.93;;;7.13;;
16450;SDS011;12243;42.708;23.310;2022-08-07T02:17:24;7.95;;;7.28;;
16450;SDS011;12243;42.708;23.310;2022-08-07T02:19:53;7.80;;;7.07;;
16450;SDS011;12243;42.708;23.310;2022-08-07T02:22:23;7.50;;;6.80;;
16450;SDS011;12243;42.708;23.310;2022-08-07T02:24:54;7.72;;;6.82;;
16450;SDS011;12243;42.708;23.310;2022-08-07T02:27:22;7.30;;;6.70;;
16450;SDS011;12243;42.708;23.310;2022-08-07T02:29:53;8.55;;;7.10;;
16450;SDS011;12243;42.708;23.310;2022-08-07T02:32:29;7.10;;;6.40;;
16450;SDS011;12243;42.708;23.310;2022-08-07T02:34:57;9.80;;;7.45;;
16450;SDS011;12243;42.708;23.310;2022-08-07T02:37:27;9.25;;;8.30;;
16450;SDS011;12243;42.708;23.310;2022-08-07T02:39:57;8.25;;;7.55;;
16450;SDS011;12243;42.708;23.310;2022-08-07T02:42:27;9.05;;;8.27;;
16450;SDS011;12243;42.708;23.310;2022-08-07T02:44:57;8.20;;;7.60;;
16450;SDS011;12243;42.708;23.310;2022-08-07T02:47:27;8.35;;;7.72;;
16450;SDS011;12243;42.708;23.310;2022-08-07T02:50:03;8.32;;;7.53;;
16450;SDS011;12243;42.708;23.310;2022-08-07T02:52:34;10.05;;;7.78;;
16450;SDS011;12243;42.708;23.310;2022-08-07T02:55:07;8.15;;;7.55;;
16450;SDS011;12243;42.708;23.310;2022-08-07T02:57:39;9.00;;;8.20;;
16450;SDS011;12243;42.708;23.310;2022-08-07T03:00:09;7.47;;;6.88;;
16450;SDS011;12243;42.708;23.310;2022-08-07T03:02:39;8.05;;;7.40;;
16450;SDS011;12243;42.708;23.310;2022-08-07T03:05:08;8.90;;;7.93;;
16450;SDS011;12243;42.708;23.310;2022-08-07T03:07:36;8.57;;;7.82;;
16450;SDS011;12243;42.708;23.310;2022-08-07T03:10:07;9.05;;;8.18;;
16450;SDS011;12243;42.708;23.310;2022-08-07T03:12:35;8.00;;;7.25;;
16450;SDS011;12243;42.708;23.310;2022-08-07T03:15:08;8.00;;;7.38;;
16450;SDS011;12243;42.708;23.310;2022-08-07T03:17:37;7.72;;;7.05;;
16450;SDS011;12243;42.708;23.310;2022-08-07T03:20:07;8.18;;;7.45;;
16450;SDS011;12243;42.708;23.310;2022-08-07T03:22:35;8.15;;;7.63;;
16450;SDS011;12243;42.708;23.310;2022-08-07T03:25:03;9.52;;;8.77;;
16450;SDS011;12243;42.708;23.310;2022-08-07T03:27:40;9.07;;;8.48;;
16450;SDS011;12243;42.708;23.310;2022-08-07T03:30:11;9.63;;;8.80;;
16450;SDS011;12243;42.708;23.310;2022-08-07T03:32:41;8.63;;;7.93;;
16450;SDS011;12243;42.708;23.310;2022-08-07T03:35:15;9.20;;;8.40;;
16450;SDS011;12243;42.708;23.310;2022-08-07T03:37:48;8.02;;;7.45;;
16450;SDS011;12243;42.708;23.310;2022-08-07T03:40:26;8.07;;;7.50;;
16450;SDS011;12243;42.708;23.310;2022-08-07T03:42:57;7.65;;;7.15;;
16450;SDS011;12243;42.708;23.310;2022-08-07T03:45:26;7.75;;;7.15;;
16450;SDS011;12243;42.708;23.310;2022-08-07T03:47:58;7.90;;;7.40;;
16450;SDS011;12243;42.708;23.310;2022-08-07T03:50:25;8.35;;;7.63;;
16450;SDS011;12243;42.708;23.310;2022-08-07T03:52:56;8.10;;;7.25;;
16450;SDS011;12243;42.708;23.310;2022-08-07T03:55:26;7.25;;;6.75;;
16450;SDS011;12243;42.708;23.310;2022-08-07T03:57:54;7.10;;;6.40;;
16450;SDS011;12243;42.708;23.310;2022-08-07T04:00:27;7.28;;;6.60;;
16450;SDS011;12243;42.708;23.310;2022-08-07T04:02:55;7.18;;;6.65;;
16450;SDS011;12243;42.708;23.310;2022-08-07T04:05:33;7.25;;;6.35;;
16450;SDS011;12243;42.708;23.310;2022-08-07T04:08:01;7.15;;;6.60;;
16450;SDS011;12243;42.708;23.310;2022-08-07T04:10:29;6.57;;;6.07;;
16450;SDS011;12243;42.708;23.310;2022-08-07T04:12:57;7.68;;;7.03;;
16450;SDS011;12243;42.708;23.310;2022-08-07T04:15:25;7.07;;;6.60;;
16450;SDS011;12243;42.708;23.310;2022-08-07T04:17:54;7.20;;;6.80;;
16450;SDS011;12243;42.708;23.310;2022-08-07T04:20:21;6.65;;;6.00;;
16450;SDS011;12243;42.708;23.310;2022-08-07T04:22:48;6.78;;;6.28;;
16450;SDS011;12243;42.708;23.310;2022-08-07T04:25:16;6.70;;;6.30;;
16450;SDS011;12243;42.708;23.310;2022-08-07T04:27:44;6.82;;;6.40;;
16450;SDS011;12243;42.708;23.310;2022-08-07T04:30:13;6.93;;;6.53;;
16450;SDS011;12243;42.708;23.310;2022-08-07T04:32:50;7.07;;;6.57;;
16450;SDS011;12243;42.708;23.310;2022-08-07T04:35:21;7.53;;;6.93;;
16450;SDS011;12243;42.708;23.310;2022-08-07T04:37:50;7.05;;;6.55;;
16450;SDS011;12243;42.708;23.310;2022-08-07T04:40:18;6.80;;;6.40;;
16450;SDS011;12243;42.708;23.310;2022-08-07T04:42:45;7.47;;;6.97;;
16450;SDS011;12243;42.708;23.310;2022-08-07T04:45:13;7.65;;;7.05;;
16450;SDS011;12243;42.708;23.310;2022-08-07T04:47:42;7.75;;;7.10;;
16450;SDS011;12243;42.708;23.310;2022-08-07T04:50:17;7.30;;;6.80;;
16450;SDS011;12243;42.708;23.310;2022-08-07T04:53:07;7.45;;;6.75;;
16450;SDS011;12243;42.708;23.310;2022-08-07T04:55:41;7.53;;;7.03;;
16450;SDS011;12243;42.708;23.310;2022-08-07T04:58:17;8.48;;;7.68;;
16450;SDS011;12243;42.708;23.310;2022-08-07T05:00:49;7.93;;;7.22;;
16450;SDS011;12243;42.708;23.310;2022-08-07T05:03:22;7.40;;;6.78;;
16450;SDS011;12243;42.708;23.310;2022-08-07T05:05:57;6.80;;;6.40;;
16450;SDS011;12243;42.708;23.310;2022-08-07T05:08:33;6.20;;;5.70;;
16450;SDS011;12243;42.708;23.310;2022-08-07T05:11:10;6.72;;;6.30;;
16450;SDS011;12243;42.708;23.310;2022-08-07T05:13:45;7.13;;;6.60;;
16450;SDS011;12243;42.708;23.310;2022-08-07T05:16:17;6.95;;;6.47;;
16450;SDS011;12243;42.708;23.310;2022-08-07T05:18:49;6.90;;;6.40;;
16450;SDS011;12243;42.708;23.310;2022-08-07T05:21:22;7.30;;;6.65;;
16450;SDS011;12243;42.708;23.310;2022-08-07T05:23:54;6.70;;;6.20;;
16450;SDS011;12243;42.708;23.310;2022-08-07T05:26:24;6.90;;;6.50;;
16450;SDS011;12243;42.708;23.310;2022-08-07T05:29:01;6.22;;;5.82;;
16450;SDS011;12243;42.708;23.310;2022-08-07T05:31:32;6.72;;;6.05;;
16450;SDS011;12243;42.708;23.310;2022-08-07T05:34:04;6.60;;;6.20;;
16450;SDS011;12243;42.708;23.310;2022-08-07T05:36:37;6.95;;;6.47;;
16450;SDS011;12243;42.708;23.310;2022-08-07T05:39:13;7.25;;;6.75;;
16450;SDS011;12243;42.708;23.310;2022-08-07T05:41:42;6.50;;;6.00;;
16450;SDS011;12243;42.708;23.310;2022-08-07T05:44:11;7.03;;;6.43;;
16450;SDS011;12243;42.708;23.310;2022-08-07T05:46:44;7.18;;;6.68;;
16450;SDS011;12243;42.708;23.310;2022-08-07T05:49:13;7.03;;;6.53;;
16450;SDS011;12243;42.708;23.310;2022-08-07T05:51:45;7.30;;;6.90;;
16450;SDS011;12243;42.708;23.310;2022-08-07T05:54:16;6.50;;;6.05;;
16450;SDS011;12243;42.708;23.310;2022-08-07T05:56:45;6.97;;;6.47;;
16450;SDS011;12243;42.708;23.310;2022-08-07T05:59:14;7.00;;;5.93;;
16450;SDS011;12243;42.708;23.310;2022-08-07T06:01:45;6.78;;;6.30;;
16450;SDS011;12243;42.708;23.310;2022-08-07T06:04:16;7.50;;;6.93;;
16450;SDS011;12243;42.708;23.310;2022-08-07T06:06:46;7.28;;;6.63;;
16450;SDS011;12243;42.708;23.310;2022-08-07T06:09:16;6.82;;;6.22;;
16450;SDS011;12243;42.708;23.310;2022-08-07T06:11:45;7.45;;;6.95;;
16450;SDS011;12243;42.708;23.310;2022-08-07T06:14:15;6.97;;;6.50;;
16450;SDS011;12243;42.708;23.310;2022-08-07T06:16:45;7.50;;;6.80;;
16450;SDS011;12243;42.708;23.310;2022-08-07T06:19:13;7.40;;;6.93;;
16450;SDS011;12243;42.708;23.310;2022-08-07T06:21:43;7.35;;;6.80;;
16450;SDS011;12243;42.708;23.310;2022-08-07T06:24:13;7.22;;;6.72;;
16450;SDS011;12243;42.708;23.310;2022-08-07T06:26:40;7.40;;;6.82;;
16450;SDS011;12243;42.708;23.310;2022-08-07T06:29:08;7.00;;;6.50;;
16450;SDS011;12243;42.708;23.310;2022-08-07T06:31:35;7.00;;;6.60;;
16450;SDS011;12243;42.708;23.310;2022-08-07T06:34:02;7.53;;;6.90;;
16450;SDS011;12243;42.708;23.310;2022-08-07T06:36:28;7.38;;;6.85;;
16450;SDS011;12243;42.708;23.310;2022-08-07T06:38:56;7.63;;;7.13;;
16450;SDS011;12243;42.708;23.310;2022-08-07T06:41:27;7.03;;;6.53;;
16450;SDS011;12243;42.708;23.310;2022-08-07T06:43:58;7.55;;;6.97;;
16450;SDS011;12243;42.708;23.310;2022-08-07T06:46:27;7.63;;;7.13;;
16450;SDS011;12243;42.708;23.310;2022-08-07T06:48:54;7.05;;;6.65;;
16450;SDS011;12243;42.708;23.310;2022-08-07T06:51:25;7.60;;;7.10;;
16450;SDS011;12243;42.708;23.310;2022-08-07T06:53:56;7.97;;;7.30;;
16450;SDS011;12243;42.708;23.310;2022-08-07T06:56:30;7.90;;;7.30;;
16450;SDS011;12243;42.708;23.310;2022-08-07T06:59:19;7.72;;;7.03;;
16450;SDS011;12243;42.708;23.310;2022-08-07T07:01:55;7.88;;;7.38;;
16450;SDS011;12243;42.708;23.310;2022-08-07T07:04:23;7.97;;;7.47;;
16450;SDS011;12243;42.708;23.310;2022-08-07T07:06:50;7.63;;;7.13;;
16450;SDS011;12243;42.708;23.310;2022-08-07T07:09:18;7.53;;;6.93;;
16450;SDS011;12243;42.708;23.310;2022-08-07T07:11:56;8.68;;;7.93;;
16450;SDS011;12243;42.708;23.310;2022-08-07T07:14:27;8.10;;;7.50;;
16450;SDS011;12243;42.708;23.310;2022-08-07T07:16:58;8.50;;;7.90;;
16450;SDS011;12243;42.708;23.310;2022-08-07T07:19:32;7.93;;;7.43;;
16450;SDS011;12243;42.708;23.310;2022-08-07T07:22:05;8.13;;;7.53;;
16450;SDS011;12243;42.708;23.310;2022-08-07T07:24:34;7.95;;;7.45;;
16450;SDS011;12243;42.708;23.310;2022-08-07T07:27:04;7.70;;;7.20;;
16450;SDS011;12243;42.708;23.310;2022-08-07T07:29:33;8.18;;;7.57;;
16450;SDS011;12243;42.708;23.310;2022-08-07T07:32:04;7.82;;;7.32;;
16450;SDS011;12243;42.708;23.310;2022-08-07T07:34:33;8.10;;;7.38;;
16450;SDS011;12243;42.708;23.310;2022-08-07T07:37:04;7.35;;;6.90;;
16450;SDS011;12243;42.708;23.310;2022-08-07T07:39:32;7.63;;;7.13;;
16450;SDS011;12243;42.708;23.310;2022-08-07T07:42:03;7.97;;;7.35;;
16450;SDS011;12243;42.708;23.310;2022-08-07T07:44:33;8.23;;;7.50;;
16450;SDS011;12243;42.708;23.310;2022-08-07T07:47:03;8.07;;;7.47;;
16450;SDS011;12243;42.708;23.310;2022-08-07T07:49:32;8.27;;;7.53;;
16450;SDS011;12243;42.708;23.310;2022-08-07T07:52:01;8.20;;;7.57;;
16450;SDS011;12243;42.708;23.310;2022-08-07T07:54:29;8.68;;;7.97;;
16450;SDS011;12243;42.708;23.310;2022-08-07T07:56:57;9.88;;;8.98;;
16450;SDS011;12243;42.708;23.310;2022-08-07T07:59:27;10.13;;;9.38;;
16450;SDS011;12243;42.708;23.310;2022-08-07T08:01:55;9.80;;;8.90;;
16450;SDS011;12243;42.708;23.310;2022-08-07T08:04:24;10.88;;;9.85;;
16450;SDS011;12243;42.708;23.310;2022-08-07T08:06:54;13.35;;;12.25;;
16450;SDS011;12243;42.708;23.310;2022-08-07T08:09:23;13.75;;;12.45;;
16450;SDS011;12243;42.708;23.310;2022-08-07T08:11:51;13.30;;;12.07;;
16450;SDS011;12243;42.708;23.310;2022-08-07T08:14:19;11.73;;;10.55;;
16450;SDS011;12243;42.708;23.310;2022-08-07T08:16:48;12.13;;;11.02;;
16450;SDS011;12243;42.708;23.310;2022-08-07T08:19:18;12.02;;;10.80;;
16450;SDS011;12243;42.708;23.310;2022-08-07T08:21:50;13.05;;;11.80;;
16450;SDS011;12243;42.708;23.310;2022-08-07T08:24:36;11.27;;;10.30;;
16450;SDS011;12243;42.708;23.310;2022-08-07T08:27:23;10.25;;;9.50;;
16450;SDS011;12243;42.708;23.310;2022-08-07T08:29:53;11.05;;;9.98;;
16450;SDS011;12243;42.708;23.310;2022-08-07T08:32:24;10.68;;;9.15;;
16450;SDS011;12243;42.708;23.310;2022-08-07T08:34:53;10.15;;;9.35;;
16450;SDS011;12243;42.708;23.310;2022-08-07T08:37:24;10.15;;;9.35;;
16450;SDS011;12243;42.708;23.310;2022-08-07T08:39:53;9.57;;;8.82;;
16450;SDS011;12243;42.708;23.310;2022-08-07T08:42:22;10.32;;;9.43;;
16450;SDS011;12243;42.708;23.310;2022-08-07T08:44:57;10.43;;;9.52;;
16450;SDS011;12243;42.708;23.310;2022-08-07T08:47:33;9.70;;;8.95;;
16450;SDS011;12243;42.708;23.310;2022-08-07T08:50:10;9.48;;;8.65;;
16450;SDS011;12243;42.708;23.310;2022-08-07T08:52:47;8.65;;;7.95;;
16450;SDS011;12243;42.708;23.310;2022-08-07T08:55:19;8.85;;;8.23;;
16450;SDS011;12243;42.708;23.310;2022-08-07T08:57:57;8.35;;;7.75;;
16450;SDS011;12243;42.708;23.310;2022-08-07T09:00:35;8.40;;;7.80;;
16450;SDS011;12243;42.708;23.310;2022-08-07T09:03:11;9.25;;;8.45;;
16450;SDS011;12243;42.708;23.310;2022-08-07T09:05:52;8.60;;;7.88;;
16450;SDS011;12243;42.708;23.310;2022-08-07T09:08:28;8.60;;;7.95;;
16450;SDS011;12243;42.708;23.310;2022-08-07T09:11:08;7.53;;;7.13;;
16450;SDS011;12243;42.708;23.310;2022-08-07T09:13:43;7.72;;;7.03;;
16450;SDS011;12243;42.708;23.310;2022-08-07T09:16:23;8.02;;;7.13;;
16450;SDS011;12243;42.708;23.310;2022-08-07T09:19:16;8.48;;;7.85;;
16450;SDS011;12243;42.708;23.310;2022-08-07T09:21:50;7.90;;;7.30;;
16450;SDS011;12243;42.708;23.310;2022-08-07T09:24:30;8.98;;;8.25;;
16450;SDS011;12243;42.708;23.310;2022-08-07T09:27:08;7.60;;;7.00;;
16450;SDS011;12243;42.708;23.310;2022-08-07T09:29:53;7.78;;;7.22;;
16450;SDS011;12243;42.708;23.310;2022-08-07T09:32:30;7.38;;;6.70;;
16450;SDS011;12243;42.708;23.310;2022-08-07T09:35:10;7.40;;;6.82;;
16450;SDS011;12243;42.708;23.310;2022-08-07T09:37:44;7.82;;;7.25;;
16450;SDS011;12243;42.708;23.310;2022-08-07T09:40:22;7.90;;;7.25;;
16450;SDS011;12243;42.708;23.310;2022-08-07T09:42:55;8.20;;;7.70;;
16450;SDS011;12243;42.708;23.310;2022-08-07T09:45:35;7.40;;;6.80;;
16450;SDS011;12243;42.708;23.310;2022-08-07T09:48:25;7.25;;;6.75;;
16450;SDS011;12243;42.708;23.310;2022-08-07T09:51:09;7.43;;;6.93;;
16450;SDS011;12243;42.708;23.310;2022-08-07T09:53:41;7.18;;;6.68;;
16450;SDS011;12243;42.708;23.310;2022-08-07T09:56:20;7.40;;;6.90;;
16450;SDS011;12243;42.708;23.310;2022-08-07T09:59:03;7.10;;;6.70;;
16450;SDS011;12243;42.708;23.310;2022-08-07T10:01:51;6.63;;;6.22;;
16450;SDS011;12243;42.708;23.310;2022-08-07T10:04:32;6.35;;;5.95;;
16450;SDS011;12243;42.708;23.310;2022-08-07T10:07:24;7.45;;;6.80;;
16450;SDS011;12243;42.708;23.310;2022-08-07T10:10:09;6.25;;;5.93;;
16450;SDS011;12243;42.708;23.310;2022-08-07T10:12:51;6.90;;;6.50;;
16450;SDS011;12243;42.708;23.310;2022-08-07T10:15:38;6.78;;;6.25;;
16450;SDS011;12243;42.708;23.310;2022-08-07T10:21:30;6.85;;;6.28;;
16450;SDS011;12243;42.708;23.310;2022-08-07T10:24:24;7.80;;;7.10;;
16450;SDS011;12243;42.708;23.310;2022-08-07T10:27:07;6.75;;;6.35;;
16450;SDS011;12243;42.708;23.310;2022-08-07T10:29:51;6.50;;;6.10;;
16450;SDS011;12243;42.708;23.310;2022-08-07T10:35:49;7.30;;;6.60;;
16450;SDS011;12243;42.708;23.310;2022-08-07T10:38:31;7.15;;;6.47;;
16450;SDS011;12243;42.708;23.310;2022-08-07T10:41:07;7.50;;;6.90;;
16450;SDS011;12243;42.708;23.310;2022-08-07T10:43:41;7.60;;;6.97;;
16450;SDS011;12243;42.708;23.310;2022-08-07T10:46:17;6.85;;;6.40;;
16450;SDS011;12243;42.708;23.310;2022-08-07T10:48:48;7.32;;;6.82;;
16450;SDS011;12243;42.708;23.310;2022-08-07T10:51:27;7.55;;;6.90;;
16450;SDS011;12243;42.708;23.310;2022-08-07T10:54:02;7.95;;;7.25;;
16450;SDS011;12243;42.708;23.310;2022-08-07T10:56:39;7.60;;;6.97;;
16450;SDS011;12243;42.708;23.310;2022-08-07T10:59:17;7.35;;;6.85;;
16450;SDS011;12243;42.708;23.310;2022-08-07T11:01:53;7.80;;;7.10;;
16450;SDS011;12243;42.708;23.310;2022-08-07T11:04:29;7.43;;;6.80;;
16450;SDS011;12243;42.708;23.310;2022-08-07T11:07:07;8.05;;;7.07;;
16450;SDS011;12243;42.708;23.310;2022-08-07T11:09:48;8.25;;;7.57;;
16450;SDS011;12243;42.708;23.310;2022-08-07T11:12:22;7.25;;;6.75;;
16450;SDS011;12243;42.708;23.310;2022-08-07T11:14:54;7.78;;;7.07;;
16450;SDS011;12243;42.708;23.310;2022-08-07T11:17:29;7.45;;;6.85;;
16450;SDS011;12243;42.708;23.310;2022-08-07T11:20:00;7.47;;;6.78;;
16450;SDS011;12243;42.708;23.310;2022-08-07T11:22:32;6.45;;;5.95;;
16450;SDS011;12243;42.708;23.310;2022-08-07T11:25:03;7.18;;;6.70;;
16450;SDS011;12243;42.708;23.310;2022-08-07T11:27:39;7.68;;;6.72;;
16450;SDS011;12243;42.708;23.310;2022-08-07T11:30:14;8.50;;;6.63;;
16450;SDS011;12243;42.708;23.310;2022-08-07T11:32:43;7.03;;;6.53;;
16450;SDS011;12243;42.708;23.310;2022-08-07T11:35:19;7.68;;;7.20;;
16450;SDS011;12243;42.708;23.310;2022-08-07T11:37:57;8.00;;;7.40;;
16450;SDS011;12243;42.708;23.310;2022-08-07T11:40:45;8.00;;;7.40;;
16450;SDS011;12243;42.708;23.310;2022-08-07T11:43:20;8.02;;;7.22;;
16450;SDS011;12243;42.708;23.310;2022-08-07T11:45:54;8.25;;;7.65;;
16450;SDS011;12243;42.708;23.310;2022-08-07T11:51:42;8.05;;;7.55;;
16450;SDS011;12243;42.708;23.310;2022-08-07T11:54:22;8.40;;;7.80;;
16450;SDS011;12243;42.708;23.310;2022-08-07T11:57:12;9.35;;;8.55;;
16450;SDS011;12243;42.708;23.310;2022-08-07T11:59:59;7.80;;;7.30;;
16450;SDS011;12243;42.708;23.310;2022-08-07T12:02:40;9.20;;;8.43;;
16450;SDS011;12243;42.708;23.310;2022-08-07T12:05:18;8.02;;;7.53;;
16450;SDS011;12243;42.708;23.310;2022-08-07T12:07:54;12.60;;;11.50;;
16450;SDS011;12243;42.708;23.310;2022-08-07T12:10:27;9.18;;;8.40;;
16450;SDS011;12243;42.708;23.310;2022-08-07T12:13:01;8.63;;;8.00;;
16450;SDS011;12243;42.708;23.310;2022-08-07T12:15:35;8.32;;;7.63;;
16450;SDS011;12243;42.708;23.310;2022-08-07T12:18:10;7.57;;;7.18;;
16450;SDS011;12243;42.708;23.310;2022-08-07T12:20:43;7.90;;;7.30;;
16450;SDS011;12243;42.708;23.310;2022-08-07T12:23:22;7.43;;;6.93;;
16450;SDS011;12243;42.708;23.310;2022-08-07T12:26:01;8.45;;;7.85;;
16450;SDS011;12243;42.708;23.310;2022-08-07T12:28:33;7.88;;;7.20;;
16450;SDS011;12243;42.708;23.310;2022-08-07T12:31:12;8.50;;;7.90;;
16450;SDS011;12243;42.708;23.310;2022-08-07T12:34:09;8.23;;;7.68;;
16450;SDS011;12243;42.708;23.310;2022-08-07T12:36:38;8.13;;;7.50;;
16450;SDS011;12243;42.708;23.310;2022-08-07T12:39:06;7.65;;;7.15;;
16450;SDS011;12243;42.708;23.310;2022-08-07T12:41:34;8.00;;;7.35;;
16450;SDS011;12243;42.708;23.310;2022-08-07T12:44:03;7.60;;;7.00;;
16450;SDS011;12243;42.708;23.310;2022-08-07T12:46:38;7.75;;;7.05;;
16450;SDS011;12243;42.708;23.310;2022-08-07T12:49:19;6.78;;;6.38;;
16450;SDS011;12243;42.708;23.310;2022-08-07T12:51:53;7.15;;;6.50;;
16450;SDS011;12243;42.708;23.310;2022-08-07T12:54:28;6.65;;;6.22;;
16450;SDS011;12243;42.708;23.310;2022-08-07T12:57:02;7.03;;;6.63;;
16450;SDS011;12243;42.708;23.310;2022-08-07T12:59:32;6.95;;;6.55;;
16450;SDS011;12243;42.708;23.310;2022-08-07T13:02:07;7.65;;;7.13;;
16450;SDS011;12243;42.708;23.310;2022-08-07T13:04:50;7.88;;;7.15;;
16450;SDS011;12243;42.708;23.310;2022-08-07T13:10:26;6.68;;;6.28;;
16450;SDS011;12243;42.708;23.310;2022-08-07T13:16:10;7.15;;;6.75;;
16450;SDS011;12243;42.708;23.310;2022-08-07T13:18:47;7.28;;;6.68;;
16450;SDS011;12243;42.708;23.310;2022-08-07T13:21:19;6.80;;;6.40;;
16450;SDS011;12243;42.708;23.310;2022-08-07T13:24:00;7.03;;;6.30;;
16450;SDS011;12243;42.708;23.310;2022-08-07T13:26:34;6.75;;;6.25;;
16450;SDS011;12243;42.708;23.310;2022-08-07T13:29:09;7.18;;;6.03;;
16450;SDS011;12243;42.708;23.310;2022-08-07T13:31:40;6.25;;;5.85;;
16450;SDS011;12243;42.708;23.310;2022-08-07T13:34:15;7.47;;;6.07;;
16450;SDS011;12243;42.708;23.310;2022-08-07T13:36:50;6.53;;;6.13;;
16450;SDS011;12243;42.708;23.310;2022-08-07T13:39:25;6.38;;;6.07;;
16450;SDS011;12243;42.708;23.310;2022-08-07T13:41:55;7.13;;;6.45;;
16450;SDS011;12243;42.708;23.310;2022-08-07T13:44:24;6.88;;;6.18;;
16450;SDS011;12243;42.708;23.310;2022-08-07T13:46:58;6.78;;;6.25;;
16450;SDS011;12243;42.708;23.310;2022-08-07T13:49:32;7.25;;;6.68;;
16450;SDS011;12243;42.708;23.310;2022-08-07T13:52:02;6.85;;;6.32;;
16450;SDS011;12243;42.708;23.310;2022-08-07T13:54:31;6.90;;;6.40;;
16450;SDS011;12243;42.708;23.310;2022-08-07T13:57:01;6.78;;;6.20;;
16450;SDS011;12243;42.708;23.310;2022-08-07T13:59:33;6.72;;;6.25;;
16450;SDS011;12243;42.708;23.310;2022-08-07T14:02:03;7.30;;;6.60;;
16450;SDS011;12243;42.708;23.310;2022-08-07T14:04:42;7.78;;;7.13;;
16450;SDS011;12243;42.708;23.310;2022-08-07T14:07:13;10.07;;;6.82;;
16450;SDS011;12243;42.708;23.310;2022-08-07T14:09:40;6.93;;;6.53;;
16450;SDS011;12243;42.708;23.310;2022-08-07T14:12:09;7.35;;;6.80;;
16450;SDS011;12243;42.708;23.310;2022-08-07T14:14:47;7.25;;;6.75;;
16450;SDS011;12243;42.708;23.310;2022-08-07T14:17:20;7.00;;;6.50;;
16450;SDS011;12243;42.708;23.310;2022-08-07T14:19:51;7.70;;;7.00;;
16450;SDS011;12243;42.708;23.310;2022-08-07T14:22:22;7.43;;;6.75;;
16450;SDS011;12243;42.708;23.310;2022-08-07T14:24:53;8.63;;;6.85;;
16450;SDS011;12243;42.708;23.310;2022-08-07T14:27:26;7.13;;;6.50;;
16450;SDS011;12243;42.708;23.310;2022-08-07T14:30:00;7.78;;;7.22;;
16450;SDS011;12243;42.708;23.310;2022-08-07T14:32:35;8.88;;;7.07;;
16450;SDS011;12243;42.708;23.310;2022-08-07T14:35:08;7.75;;;7.15;;
16450;SDS011;12243;42.708;23.310;2022-08-07T14:37:41;8.38;;;7.60;;
16450;SDS011;12243;42.708;23.310;2022-08-07T14:40:13;7.03;;;6.53;;
16450;SDS011;12243;42.708;23.310;2022-08-07T14:42:41;7.88;;;7.20;;
16450;SDS011;12243;42.708;23.310;2022-08-07T14:45:11;8.70;;;7.80;;
16450;SDS011;12243;42.708;23.310;2022-08-07T14:47:39;8.95;;;7.43;;
16450;SDS011;12243;42.708;23.310;2022-08-07T14:50:11;8.30;;;7.50;;
16450;SDS011;12243;42.708;23.310;2022-08-07T14:52:43;8.68;;;7.93;;
16450;SDS011;12243;42.708;23.310;2022-08-07T14:55:13;7.93;;;7.18;;
16450;SDS011;12243;42.708;23.310;2022-08-07T14:57:41;8.20;;;7.60;;
16450;SDS011;12243;42.708;23.310;2022-08-07T15:00:12;7.63;;;7.13;;
16450;SDS011;12243;42.708;23.310;2022-08-07T15:02:43;7.85;;;7.35;;
16450;SDS011;12243;42.708;23.310;2022-08-07T15:05:14;7.57;;;7.00;;
16450;SDS011;12243;42.708;23.310;2022-08-07T15:07:43;8.02;;;7.32;;
16450;SDS011;12243;42.708;23.310;2022-08-07T15:10:19;7.82;;;7.22;;
16450;SDS011;12243;42.708;23.310;2022-08-07T15:12:48;7.88;;;7.28;;
16450;SDS011;12243;42.708;23.310;2022-08-07T15:15:28;7.72;;;7.13;;
16450;SDS011;12243;42.708;23.310;2022-08-07T15:18:03;8.80;;;7.95;;
16450;SDS011;12243;42.708;23.310;2022-08-07T15:20:35;7.03;;;6.63;;